Rodekro, Denmark
Current Conditions -  °F | °C
As of 8:20 AM on Friday 31 Oct 2014 (Local Time) from EKSP Reporting Station
Moderate Fog Moderate Fog  
Wind Chill: 50°   Ceiling: 100
Heat Index: 50°   Visibility: 0.12mi
Dew Point: 50°   Wind: 6mph
Humidity: 100%   Direction: 180°S
Pressure: 30.15"   Gusts: NA
Location:  55.07°N, 9.32°E
Report Text: EKSP 310720Z 18005KT 140V200 0200 R10/0700N R28/0650NFG VV001 10/10 Q1021 TEMPO 2000 BR
Loading
Personal Weather Stations






























Interactive Weather Map
Tropical Storm Tracking
New forecast layout! Learn more

10-Day Weather Forecast

Advertisements
Track Severe Weather on mobile